Addison, Michigan
Current Conditions -  °F | °C
As of 4:55 AM on Sunday 26 Oct 2014 (Local Time) from KJYM Reporting Station
Clear Clear  
Wind Chill: 37°   Ceiling: Unl
Heat Index: 40°   Visibility: 10mi
Dew Point: 32°   Wind: 5mph
Humidity: 72%   Direction: 280°W
Pressure: 29.9"   Gusts: NA
Location:  41.99°N, 84.35°W
Report Text: KJYM 260855Z AUTO 28004KT 10SM CLR 05/00 A2990 RMK AO2 T00470001
Loading
Personal Weather Stations






























Interactive Weather Map New forecast layout! Learn more

10-Day Weather Forecast

Advertisements
Track Severe Weather on mobile